sensor_id;sensor_type;location;lat;lon;timestamp;pressure;altitude;pressure_sealevel;temperature
68510;BMP180;55512;50.102;19.958;2023-04-24T00:00:02;97969.20;;;13.90
68510;BMP180;55512;50.102;19.958;2023-04-24T00:02:31;97966.00;;;13.80
68510;BMP180;55512;50.102;19.958;2023-04-24T00:04:58;97968.20;;;13.80
68510;BMP180;55512;50.102;19.958;2023-04-24T00:07:30;97958.00;;;13.70
68510;BMP180;55512;50.102;19.958;2023-04-24T00:09:56;97954.20;;;13.70
68510;BMP180;55512;50.102;19.958;2023-04-24T00:12:21;97948.80;;;13.60
68510;BMP180;55512;50.102;19.958;2023-04-24T00:14:47;97945.80;;;13.52
68510;BMP180;55512;50.102;19.958;2023-04-24T00:17:12;97947.60;;;13.50
68510;BMP180;55512;50.102;19.958;2023-04-24T00:19:38;97944.60;;;13.42
68510;BMP180;55512;50.102;19.958;2023-04-24T00:22:04;97947.80;;;13.40
68510;BMP180;55512;50.102;19.958;2023-04-24T00:24:29;97946.80;;;13.30
68510;BMP180;55512;50.102;19.958;2023-04-24T00:26:55;97945.60;;;13.30
68510;BMP180;55512;50.102;19.958;2023-04-24T00:29:20;97942.80;;;13.28
68510;BMP180;55512;50.102;19.958;2023-04-24T00:31:45;97942.80;;;13.20
68510;BMP180;55512;50.102;19.958;2023-04-24T00:34:11;97938.00;;;13.20
68510;BMP180;55512;50.102;19.958;2023-04-24T00:36:38;97934.80;;;13.20
68510;BMP180;55512;50.102;19.958;2023-04-24T00:39:03;97929.80;;;13.20
68510;BMP180;55512;50.102;19.958;2023-04-24T00:41:29;97929.20;;;13.10
68510;BMP180;55512;50.102;19.958;2023-04-24T00:43:55;97930.00;;;13.10
68510;BMP180;55512;50.102;19.958;2023-04-24T00:46:21;97927.20;;;13.00
68510;BMP180;55512;50.102;19.958;2023-04-24T00:48:46;97925.60;;;13.00
68510;BMP180;55512;50.102;19.958;2023-04-24T00:51:12;97926.60;;;12.90
68510;BMP180;55512;50.102;19.958;2023-04-24T00:53:37;97922.60;;;12.84
68510;BMP180;55512;50.102;19.958;2023-04-24T00:56:04;97919.40;;;12.80
68510;BMP180;55512;50.102;19.958;2023-04-24T00:58:31;97915.80;;;12.74
68510;BMP180;55512;50.102;19.958;2023-04-24T01:00:58;97914.80;;;12.70
68510;BMP180;55512;50.102;19.958;2023-04-24T01:03:29;97913.60;;;12.64
68510;BMP180;55512;50.102;19.958;2023-04-24T01:05:55;97910.00;;;12.60
68510;BMP180;55512;50.102;19.958;2023-04-24T01:08:23;97907.80;;;12.50
68510;BMP180;55512;50.102;19.958;2023-04-24T01:10:52;97903.00;;;12.50
68510;BMP180;55512;50.102;19.958;2023-04-24T01:13:21;97904.40;;;12.50
68510;BMP180;55512;50.102;19.958;2023-04-24T01:15:47;97898.00;;;12.46
68510;BMP180;55512;50.102;19.958;2023-04-24T01:18:13;97896.00;;;12.40
68510;BMP180;55512;50.102;19.958;2023-04-24T01:20:43;97899.00;;;12.40
68510;BMP180;55512;50.102;19.958;2023-04-24T01:23:10;97893.60;;;12.40
68510;BMP180;55512;50.102;19.958;2023-04-24T01:25:36;97898.40;;;12.30
68510;BMP180;55512;50.102;19.958;2023-04-24T01:28:03;97894.20;;;12.30
68510;BMP180;55512;50.102;19.958;2023-04-24T01:30:30;97892.80;;;12.20
68510;BMP180;55512;50.102;19.958;2023-04-24T01:32:56;97892.60;;;12.20
68510;BMP180;55512;50.102;19.958;2023-04-24T01:35:22;97887.00;;;12.10
68510;BMP180;55512;50.102;19.958;2023-04-24T01:37:47;97886.80;;;12.10
68510;BMP180;55512;50.102;19.958;2023-04-24T01:40:13;97887.00;;;12.00
68510;BMP180;55512;50.102;19.958;2023-04-24T01:42:41;97879.00;;;11.92
68510;BMP180;55512;50.102;19.958;2023-04-24T01:45:11;97879.60;;;11.80
68510;BMP180;55512;50.102;19.958;2023-04-24T01:47:38;97877.80;;;11.70
68510;BMP180;55512;50.102;19.958;2023-04-24T01:50:06;97868.00;;;11.70
68510;BMP180;55512;50.102;19.958;2023-04-24T01:52:32;97867.40;;;11.60
68510;BMP180;55512;50.102;19.958;2023-04-24T01:55:03;97863.60;;;11.60
68510;BMP180;55512;50.102;19.958;2023-04-24T01:57:33;97863.60;;;11.60
68510;BMP180;55512;50.102;19.958;2023-04-24T01:59:59;97856.40;;;11.60
68510;BMP180;55512;50.102;19.958;2023-04-24T02:02:24;97859.80;;;11.60
68510;BMP180;55512;50.102;19.958;2023-04-24T02:04:53;97859.80;;;11.60
68510;BMP180;55512;50.102;19.958;2023-04-24T02:07:19;97855.20;;;11.60
68510;BMP180;55512;50.102;19.958;2023-04-24T02:09:45;97855.20;;;11.60
68510;BMP180;55512;50.102;19.958;2023-04-24T02:12:10;97849.00;;;11.60
68510;BMP180;55512;50.102;19.958;2023-04-24T02:14:36;97841.80;;;11.60
68510;BMP180;55512;50.102;19.958;2023-04-24T02:17:01;97843.20;;;11.60
68510;BMP180;55512;50.102;19.958;2023-04-24T02:19:27;97842.00;;;11.58
68510;BMP180;55512;50.102;19.958;2023-04-24T02:21:52;97839.00;;;11.50
68510;BMP180;55512;50.102;19.958;2023-04-24T02:24:18;97833.20;;;11.50
68510;BMP180;55512;50.102;19.958;2023-04-24T02:26:43;97833.60;;;11.50
68510;BMP180;55512;50.102;19.958;2023-04-24T02:29:08;97832.60;;;11.40
68510;BMP180;55512;50.102;19.958;2023-04-24T02:31:34;97829.20;;;11.40
68510;BMP180;55512;50.102;19.958;2023-04-24T02:33:59;97823.60;;;11.40
68510;BMP180;55512;50.102;19.958;2023-04-24T02:36:25;97825.00;;;11.36
68510;BMP180;55512;50.102;19.958;2023-04-24T02:38:50;97815.40;;;11.30
68510;BMP180;55512;50.102;19.958;2023-04-24T02:41:16;97811.40;;;11.30
68510;BMP180;55512;50.102;19.958;2023-04-24T02:43:41;97812.20;;;11.30
68510;BMP180;55512;50.102;19.958;2023-04-24T02:46:06;97807.20;;;11.20
68510;BMP180;55512;50.102;19.958;2023-04-24T02:48:32;97810.40;;;11.20
68510;BMP180;55512;50.102;19.958;2023-04-24T02:50:57;97813.80;;;11.10
68510;BMP180;55512;50.102;19.958;2023-04-24T02:53:23;97807.00;;;11.10
68510;BMP180;55512;50.102;19.958;2023-04-24T02:55:49;97808.60;;;11.14
68510;BMP180;55512;50.102;19.958;2023-04-24T02:58:14;97804.60;;;11.10
68510;BMP180;55512;50.102;19.958;2023-04-24T03:00:40;97805.20;;;11.10
68510;BMP180;55512;50.102;19.958;2023-04-24T03:03:05;97811.60;;;11.10
68510;BMP180;55512;50.102;19.958;2023-04-24T03:05:32;97806.00;;;11.10
68510;BMP180;55512;50.102;19.958;2023-04-24T03:07:57;97807.40;;;11.10
68510;BMP180;55512;50.102;19.958;2023-04-24T03:10:23;97807.00;;;11.08
68510;BMP180;55512;50.102;19.958;2023-04-24T03:12:48;97802.60;;;11.10
68510;BMP180;55512;50.102;19.958;2023-04-24T03:15:15;97803.20;;;11.10
68510;BMP180;55512;50.102;19.958;2023-04-24T03:17:41;97806.60;;;11.06
68510;BMP180;55512;50.102;19.958;2023-04-24T03:20:07;97803.60;;;11.06
68510;BMP180;55512;50.102;19.958;2023-04-24T03:22:33;97802.60;;;11.00
68510;BMP180;55512;50.102;19.958;2023-04-24T03:25:00;97804.20;;;11.00
68510;BMP180;55512;50.102;19.958;2023-04-24T03:27:25;97797.60;;;11.00
68510;BMP180;55512;50.102;19.958;2023-04-24T03:29:51;97797.40;;;11.00
68510;BMP180;55512;50.102;19.958;2023-04-24T03:32:23;97793.00;;;11.00
68510;BMP180;55512;50.102;19.958;2023-04-24T03:34:49;97796.80;;;10.90
68510;BMP180;55512;50.102;19.958;2023-04-24T03:37:16;97796.00;;;10.90
68510;BMP180;55512;50.102;19.958;2023-04-24T03:39:42;97801.40;;;10.90
68510;BMP180;55512;50.102;19.958;2023-04-24T03:42:08;97798.60;;;10.90
68510;BMP180;55512;50.102;19.958;2023-04-24T03:44:34;97799.60;;;10.90
68510;BMP180;55512;50.102;19.958;2023-04-24T03:47:00;97799.80;;;10.90
68510;BMP180;55512;50.102;19.958;2023-04-24T03:49:26;97801.60;;;10.90
68510;BMP180;55512;50.102;19.958;2023-04-24T03:51:51;97795.20;;;10.90
68510;BMP180;55512;50.102;19.958;2023-04-24T03:54:21;97799.40;;;10.98
68510;BMP180;55512;50.102;19.958;2023-04-24T03:56:46;97800.40;;;10.98
68510;BMP180;55512;50.102;19.958;2023-04-24T03:59:11;97797.40;;;11.00
68510;BMP180;55512;50.102;19.958;2023-04-24T04:01:38;97802.00;;;10.90
68510;BMP180;55512;50.102;19.958;2023-04-24T04:04:05;97801.20;;;10.90
68510;BMP180;55512;50.102;19.958;2023-04-24T04:06:31;97796.80;;;10.90
68510;BMP180;55512;50.102;19.958;2023-04-24T04:08:57;97801.40;;;10.90
68510;BMP180;55512;50.102;19.958;2023-04-24T04:11:23;97797.40;;;10.92
68510;BMP180;55512;50.102;19.958;2023-04-24T04:13:48;97799.40;;;10.98
68510;BMP180;55512;50.102;19.958;2023-04-24T04:16:14;97794.40;;;11.00
68510;BMP180;55512;50.102;19.958;2023-04-24T04:18:42;97800.60;;;11.00
68510;BMP180;55512;50.102;19.958;2023-04-24T04:21:08;97803.00;;;11.00
68510;BMP180;55512;50.102;19.958;2023-04-24T04:23:33;97802.00;;;11.06
68510;BMP180;55512;50.102;19.958;2023-04-24T04:25:58;97799.40;;;11.10
68510;BMP180;55512;50.102;19.958;2023-04-24T04:28:25;97800.80;;;11.10
68510;BMP180;55512;50.102;19.958;2023-04-24T04:30:51;97800.00;;;11.20
68510;BMP180;55512;50.102;19.958;2023-04-24T04:33:21;97796.00;;;11.20
68510;BMP180;55512;50.102;19.958;2023-04-24T04:35:47;97792.20;;;11.30
68510;BMP180;55512;50.102;19.958;2023-04-24T04:38:18;97791.00;;;11.32
68510;BMP180;55512;50.102;19.958;2023-04-24T04:40:45;97792.00;;;11.40
68510;BMP180;55512;50.102;19.958;2023-04-24T04:43:11;97790.60;;;11.40
68510;BMP180;55512;50.102;19.958;2023-04-24T04:45:38;97792.00;;;11.50
68510;BMP180;55512;50.102;19.958;2023-04-24T04:48:07;97787.60;;;11.52
68510;BMP180;55512;50.102;19.958;2023-04-24T04:50:38;97787.60;;;11.60
68510;BMP180;55512;50.102;19.958;2023-04-24T04:53:04;97789.00;;;11.70
68510;BMP180;55512;50.102;19.958;2023-04-24T04:55:30;97791.00;;;11.70
68510;BMP180;55512;50.102;19.958;2023-04-24T04:57:55;97791.60;;;11.80
68510;BMP180;55512;50.102;19.958;2023-04-24T05:00:22;97791.00;;;11.88
68510;BMP180;55512;50.102;19.958;2023-04-24T05:02:50;97791.80;;;11.90
68510;BMP180;55512;50.102;19.958;2023-04-24T05:05:17;97791.80;;;12.00
68510;BMP180;55512;50.102;19.958;2023-04-24T05:07:43;97793.20;;;12.10
68510;BMP180;55512;50.102;19.958;2023-04-24T05:10:10;97796.00;;;12.10
68510;BMP180;55512;50.102;19.958;2023-04-24T05:12:36;97794.40;;;12.20
68510;BMP180;55512;50.102;19.958;2023-04-24T05:15:01;97797.00;;;12.30
68510;BMP180;55512;50.102;19.958;2023-04-24T05:17:27;97796.20;;;12.36
68510;BMP180;55512;50.102;19.958;2023-04-24T05:19:52;97795.80;;;12.40
68510;BMP180;55512;50.102;19.958;2023-04-24T05:22:17;97792.60;;;12.50
68510;BMP180;55512;50.102;19.958;2023-04-24T05:24:46;97791.80;;;12.60
68510;BMP180;55512;50.102;19.958;2023-04-24T05:27:11;97791.80;;;12.68
68510;BMP180;55512;50.102;19.958;2023-04-24T05:29:37;97791.80;;;12.72
68510;BMP180;55512;50.102;19.958;2023-04-24T05:32:02;97786.00;;;12.80
68510;BMP180;55512;50.102;19.958;2023-04-24T05:34:27;97789.40;;;12.90
68510;BMP180;55512;50.102;19.958;2023-04-24T05:36:53;97790.00;;;13.00
68510;BMP180;55512;50.102;19.958;2023-04-24T05:39:18;97794.40;;;13.10
68510;BMP180;55512;50.102;19.958;2023-04-24T05:41:45;97795.80;;;13.20
68510;BMP180;55512;50.102;19.958;2023-04-24T05:44:10;97794.80;;;13.20
68510;BMP180;55512;50.102;19.958;2023-04-24T05:46:36;97790.40;;;13.30
68510;BMP180;55512;50.102;19.958;2023-04-24T05:49:02;97788.60;;;13.40
68510;BMP180;55512;50.102;19.958;2023-04-24T05:51:28;97789.40;;;13.50
68510;BMP180;55512;50.102;19.958;2023-04-24T05:53:54;97787.80;;;13.60
68510;BMP180;55512;50.102;19.958;2023-04-24T05:56:20;97788.40;;;13.70
68510;BMP180;55512;50.102;19.958;2023-04-24T05:58:46;97786.60;;;13.80
68510;BMP180;55512;50.102;19.958;2023-04-24T06:01:13;97788.20;;;13.84
68510;BMP180;55512;50.102;19.958;2023-04-24T06:03:40;97782.80;;;13.90
68510;BMP180;55512;50.102;19.958;2023-04-24T06:06:07;97775.40;;;14.00
68510;BMP180;55512;50.102;19.958;2023-04-24T06:08:34;97775.20;;;14.10
68510;BMP180;55512;50.102;19.958;2023-04-24T06:11:00;97770.40;;;14.20
68510;BMP180;55512;50.102;19.958;2023-04-24T06:13:25;97770.00;;;14.30
68510;BMP180;55512;50.102;19.958;2023-04-24T06:15:51;97771.20;;;14.40
68510;BMP180;55512;50.102;19.958;2023-04-24T06:18:16;97773.60;;;14.50
68510;BMP180;55512;50.102;19.958;2023-04-24T06:20:42;97772.40;;;14.56
68510;BMP180;55512;50.102;19.958;2023-04-24T06:23:07;97771.20;;;14.62
68510;BMP180;55512;50.102;19.958;2023-04-24T06:25:33;97774.40;;;14.70
68510;BMP180;55512;50.102;19.958;2023-04-24T06:27:59;97774.00;;;14.80
68510;BMP180;55512;50.102;19.958;2023-04-24T06:30:24;97771.00;;;14.90
68510;BMP180;55512;50.102;19.958;2023-04-24T06:32:50;97771.00;;;14.96
68510;BMP180;55512;50.102;19.958;2023-04-24T06:35:16;97767.40;;;15.00
68510;BMP180;55512;50.102;19.958;2023-04-24T06:37:42;97768.00;;;15.10
68510;BMP180;55512;50.102;19.958;2023-04-24T06:40:09;97766.60;;;15.20
68510;BMP180;55512;50.102;19.958;2023-04-24T06:42:35;97764.00;;;15.30
68510;BMP180;55512;50.102;19.958;2023-04-24T06:45:01;97761.00;;;15.38
68510;BMP180;55512;50.102;19.958;2023-04-24T06:47:26;97756.40;;;15.40
68510;BMP180;55512;50.102;19.958;2023-04-24T06:49:52;97754.20;;;15.50
68510;BMP180;55512;50.102;19.958;2023-04-24T06:52:18;97747.80;;;15.60
68510;BMP180;55512;50.102;19.958;2023-04-24T06:54:43;97748.60;;;15.70
68510;BMP180;55512;50.102;19.958;2023-04-24T06:57:09;97743.60;;;15.78
68510;BMP180;55512;50.102;19.958;2023-04-24T06:59:36;97749.00;;;15.80
68510;BMP180;55512;50.102;19.958;2023-04-24T07:02:01;97744.60;;;15.90
68510;BMP180;55512;50.102;19.958;2023-04-24T07:04:28;97748.00;;;16.00
68510;BMP180;55512;50.102;19.958;2023-04-24T07:06:54;97752.80;;;16.10
68510;BMP180;55512;50.102;19.958;2023-04-24T07:09:22;97751.00;;;16.20
68510;BMP180;55512;50.102;19.958;2023-04-24T07:11:49;97742.60;;;16.28
68510;BMP180;55512;50.102;19.958;2023-04-24T07:14:15;97739.20;;;16.30
68510;BMP180;55512;50.102;19.958;2023-04-24T07:16:42;97743.00;;;16.40
68510;BMP180;55512;50.102;19.958;2023-04-24T07:19:07;97740.80;;;16.50
68510;BMP180;55512;50.102;19.958;2023-04-24T07:21:33;97739.00;;;16.60
68510;BMP180;55512;50.102;19.958;2023-04-24T07:23:59;97736.60;;;16.70
68510;BMP180;55512;50.102;19.958;2023-04-24T07:26:27;97735.20;;;16.80
68510;BMP180;55512;50.102;19.958;2023-04-24T07:28:53;97732.60;;;16.90
68510;BMP180;55512;50.102;19.958;2023-04-24T07:31:19;97729.20;;;17.00
68510;BMP180;55512;50.102;19.958;2023-04-24T07:33:44;97734.40;;;17.10
68510;BMP180;55512;50.102;19.958;2023-04-24T07:36:10;97732.20;;;17.20
68510;BMP180;55512;50.102;19.958;2023-04-24T07:38:43;97729.00;;;17.30
68510;BMP180;55512;50.102;19.958;2023-04-24T07:41:09;97724.60;;;17.40
68510;BMP180;55512;50.102;19.958;2023-04-24T07:43:35;97724.80;;;17.50
68510;BMP180;55512;50.102;19.958;2023-04-24T07:46:00;97721.00;;;17.60
68510;BMP180;55512;50.102;19.958;2023-04-24T07:48:26;97722.40;;;17.70
68510;BMP180;55512;50.102;19.958;2023-04-24T07:50:52;97720.40;;;17.80
68510;BMP180;55512;50.102;19.958;2023-04-24T07:53:18;97718.40;;;17.90
68510;BMP180;55512;50.102;19.958;2023-04-24T07:55:44;97717.20;;;18.00
68510;BMP180;55512;50.102;19.958;2023-04-24T07:58:09;97719.80;;;18.10
68510;BMP180;55512;50.102;19.958;2023-04-24T08:00:35;97720.80;;;18.20
68510;BMP180;55512;50.102;19.958;2023-04-24T08:03:01;97716.60;;;18.36
68510;BMP180;55512;50.102;19.958;2023-04-24T08:05:26;97715.80;;;18.44
68510;BMP180;55512;50.102;19.958;2023-04-24T08:07:54;97716.00;;;18.58
68510;BMP180;55512;50.102;19.958;2023-04-24T08:10:22;97711.60;;;18.70
68510;BMP180;55512;50.102;19.958;2023-04-24T08:12:48;97709.80;;;18.74
68510;BMP180;55512;50.102;19.958;2023-04-24T08:15:14;97710.60;;;18.80
68510;BMP180;55512;50.102;19.958;2023-04-24T08:17:39;97711.80;;;18.96
68510;BMP180;55512;50.102;19.958;2023-04-24T08:20:06;97710.60;;;19.08
68510;BMP180;55512;50.102;19.958;2023-04-24T08:22:36;97706.00;;;19.18
68510;BMP180;55512;50.102;19.958;2023-04-24T08:25:02;97698.60;;;19.30
68510;BMP180;55512;50.102;19.958;2023-04-24T08:27:28;97701.80;;;19.40
68510;BMP180;55512;50.102;19.958;2023-04-24T08:29:54;97702.80;;;19.40
68510;BMP180;55512;50.102;19.958;2023-04-24T08:32:22;97701.20;;;19.50
68510;BMP180;55512;50.102;19.958;2023-04-24T08:34:48;97703.60;;;19.62
68510;BMP180;55512;50.102;19.958;2023-04-24T08:37:13;97698.60;;;19.80
68510;BMP180;55512;50.102;19.958;2023-04-24T08:39:39;97695.00;;;19.90
68510;BMP180;55512;50.102;19.958;2023-04-24T08:42:05;97694.20;;;20.00
68510;BMP180;55512;50.102;19.958;2023-04-24T08:44:34;97696.00;;;20.10
68510;BMP180;55512;50.102;19.958;2023-04-24T08:47:04;97697.40;;;20.20
68510;BMP180;55512;50.102;19.958;2023-04-24T08:49:30;97693.60;;;20.30
68510;BMP180;55512;50.102;19.958;2023-04-24T08:51:56;97687.20;;;20.40
68510;BMP180;55512;50.102;19.958;2023-04-24T08:54:23;97685.00;;;20.50
68510;BMP180;55512;50.102;19.958;2023-04-24T08:56:50;97687.20;;;20.50
68510;BMP180;55512;50.102;19.958;2023-04-24T08:59:19;97684.20;;;20.60
68510;BMP180;55512;50.102;19.958;2023-04-24T09:01:49;97684.40;;;20.70
68510;BMP180;55512;50.102;19.958;2023-04-24T09:04:15;97682.80;;;20.80
68510;BMP180;55512;50.102;19.958;2023-04-24T09:06:43;97681.60;;;20.80
68510;BMP180;55512;50.102;19.958;2023-04-24T09:09:10;97680.40;;;20.90
68510;BMP180;55512;50.102;19.958;2023-04-24T09:11:37;97676.20;;;20.90
68510;BMP180;55512;50.102;19.958;2023-04-24T09:14:03;97674.40;;;21.00
68510;BMP180;55512;50.102;19.958;2023-04-24T09:16:30;97675.20;;;21.00
68510;BMP180;55512;50.102;19.958;2023-04-24T09:18:58;97676.20;;;21.10
68510;BMP180;55512;50.102;19.958;2023-04-24T09:21:24;97672.80;;;21.14
68510;BMP180;55512;50.102;19.958;2023-04-24T09:24:01;97668.00;;;21.20
68510;BMP180;55512;50.102;19.958;2023-04-24T09:26:30;97666.80;;;21.30
68510;BMP180;55512;50.102;19.958;2023-04-24T09:28:59;97659.40;;;21.36
68510;BMP180;55512;50.102;19.958;2023-04-24T09:31:28;97660.80;;;21.40
68510;BMP180;55512;50.102;19.958;2023-04-24T09:34:04;97662.60;;;21.50
68510;BMP180;55512;50.102;19.958;2023-04-24T09:36:40;97658.60;;;21.60
68510;BMP180;55512;50.102;19.958;2023-04-24T09:39:09;97656.20;;;21.60
68510;BMP180;55512;50.102;19.958;2023-04-24T09:41:52;97652.20;;;21.60
68510;BMP180;55512;50.102;19.958;2023-04-24T09:44:20;97652.20;;;21.60
68510;BMP180;55512;50.102;19.958;2023-04-24T09:46:58;97652.40;;;21.70
68510;BMP180;55512;50.102;19.958;2023-04-24T09:49:27;97648.40;;;21.82
68510;BMP180;55512;50.102;19.958;2023-04-24T09:52:03;97646.80;;;21.90
68510;BMP180;55512;50.102;19.958;2023-04-24T09:54:30;97652.00;;;22.00
68510;BMP180;55512;50.102;19.958;2023-04-24T09:56:55;97648.00;;;22.10
68510;BMP180;55512;50.102;19.958;2023-04-24T09:59:22;97646.80;;;22.20
68510;BMP180;55512;50.102;19.958;2023-04-24T10:01:49;97639.20;;;22.30
68510;BMP180;55512;50.102;19.958;2023-04-24T10:04:23;97639.80;;;22.24
68510;BMP180;55512;50.102;19.958;2023-04-24T10:06:51;97639.40;;;22.18
68510;BMP180;55512;50.102;19.958;2023-04-24T10:09:21;97636.20;;;22.20
68510;BMP180;55512;50.102;19.958;2023-04-24T10:11:50;97631.20;;;22.30
68510;BMP180;55512;50.102;19.958;2023-04-24T10:14:20;97633.60;;;22.40
68510;BMP180;55512;50.102;19.958;2023-04-24T10:16:51;97633.40;;;22.50
68510;BMP180;55512;50.102;19.958;2023-04-24T10:19:17;97631.00;;;22.60
68510;BMP180;55512;50.102;19.958;2023-04-24T10:21:46;97626.40;;;22.74
68510;BMP180;55512;50.102;19.958;2023-04-24T10:24:17;97624.80;;;22.80
68510;BMP180;55512;50.102;19.958;2023-04-24T10:26:45;97620.40;;;22.90
68510;BMP180;55512;50.102;19.958;2023-04-24T10:29:16;97619.80;;;23.08
68510;BMP180;55512;50.102;19.958;2023-04-24T10:31:42;97622.20;;;23.14
68510;BMP180;55512;50.102;19.958;2023-04-24T10:34:11;97622.40;;;23.28
68510;BMP180;55512;50.102;19.958;2023-04-24T10:36:42;97625.20;;;23.30
68510;BMP180;55512;50.102;19.958;2023-04-24T10:39:13;97626.40;;;23.40
68510;BMP180;55512;50.102;19.958;2023-04-24T10:41:43;97626.80;;;23.50
68510;BMP180;55512;50.102;19.958;2023-04-24T10:44:14;97623.40;;;23.50
68510;BMP180;55512;50.102;19.958;2023-04-24T10:46:45;97626.20;;;23.54
68510;BMP180;55512;50.102;19.958;2023-04-24T10:49:12;97628.40;;;23.60
68510;BMP180;55512;50.102;19.958;2023-04-24T10:54:24;97618.20;;;23.76
68510;BMP180;55512;50.102;19.958;2023-04-24T10:56:51;97615.40;;;23.80
68510;BMP180;55512;50.102;19.958;2023-04-24T10:59:27;97619.00;;;23.80
68510;BMP180;55512;50.102;19.958;2023-04-24T11:01:59;97615.40;;;23.80
68510;BMP180;55512;50.102;19.958;2023-04-24T11:04:32;97614.20;;;23.84
68510;BMP180;55512;50.102;19.958;2023-04-24T11:06:58;97609.00;;;23.90
68510;BMP180;55512;50.102;19.958;2023-04-24T11:09:28;97609.40;;;23.90
68510;BMP180;55512;50.102;19.958;2023-04-24T11:12:05;97613.00;;;24.00
68510;BMP180;55512;50.102;19.958;2023-04-24T11:17:32;97615.20;;;24.10
68510;BMP180;55512;50.102;19.958;2023-04-24T11:20:10;97613.00;;;24.10
68510;BMP180;55512;50.102;19.958;2023-04-24T11:22:39;97602.80;;;24.10
68510;BMP180;55512;50.102;19.958;2023-04-24T11:25:09;97604.00;;;24.10
68510;BMP180;55512;50.102;19.958;2023-04-24T11:27:44;97603.40;;;24.10
68510;BMP180;55512;50.102;19.958;2023-04-24T11:30:18;97599.20;;;24.20
68510;BMP180;55512;50.102;19.958;2023-04-24T11:32:50;97593.80;;;24.20
68510;BMP180;55512;50.102;19.958;2023-04-24T11:35:19;97595.80;;;24.30
68510;BMP180;55512;50.102;19.958;2023-04-24T11:37:48;97593.00;;;24.32
68510;BMP180;55512;50.102;19.958;2023-04-24T11:40:16;97591.60;;;24.40
68510;BMP180;55512;50.102;19.958;2023-04-24T11:42:47;97597.80;;;24.48
68510;BMP180;55512;50.102;19.958;2023-04-24T11:45:25;97591.00;;;24.50
68510;BMP180;55512;50.102;19.958;2023-04-24T11:47:51;97589.80;;;24.60
68510;BMP180;55512;50.102;19.958;2023-04-24T11:50:19;97586.60;;;24.60
68510;BMP180;55512;50.102;19.958;2023-04-24T11:52:48;97586.80;;;24.70
68510;BMP180;55512;50.102;19.958;2023-04-24T11:57:39;97586.00;;;24.80
68510;BMP180;55512;50.102;19.958;2023-04-24T12:02:44;97580.00;;;25.00
68510;BMP180;55512;50.102;19.958;2023-04-24T12:05:25;97578.40;;;25.10
68510;BMP180;55512;50.102;19.958;2023-04-24T12:07:51;97576.60;;;25.20
68510;BMP180;55512;50.102;19.958;2023-04-24T12:10:22;97569.20;;;25.30
68510;BMP180;55512;50.102;19.958;2023-04-24T12:12:49;97566.00;;;25.40
68510;BMP180;55512;50.102;19.958;2023-04-24T12:15:18;97566.00;;;25.40
68510;BMP180;55512;50.102;19.958;2023-04-24T12:17:44;97566.00;;;25.50
68510;BMP180;55512;50.102;19.958;2023-04-24T12:20:12;97562.20;;;25.50
68510;BMP180;55512;50.102;19.958;2023-04-24T12:22:48;97557.40;;;25.46
68510;BMP180;55512;50.102;19.958;2023-04-24T12:25:17;97557.20;;;25.40
68510;BMP180;55512;50.102;19.958;2023-04-24T12:27:44;97557.00;;;25.50
68510;BMP180;55512;50.102;19.958;2023-04-24T12:30:14;97553.80;;;25.58
68510;BMP180;55512;50.102;19.958;2023-04-24T12:32:47;97547.80;;;25.60
68510;BMP180;55512;50.102;19.958;2023-04-24T12:35:19;97549.20;;;25.50
68510;BMP180;55512;50.102;19.958;2023-04-24T12:37:46;97545.80;;;25.50
68510;BMP180;55512;50.102;19.958;2023-04-24T12:40:12;97544.80;;;25.50
68510;BMP180;55512;50.102;19.958;2023-04-24T12:42:48;97543.40;;;25.50
68510;BMP180;55512;50.102;19.958;2023-04-24T12:45:16;97536.20;;;25.40
68510;BMP180;55512;50.102;19.958;2023-04-24T12:47:45;97537.40;;;25.40
68510;BMP180;55512;50.102;19.958;2023-04-24T12:50:14;97539.80;;;25.30
68510;BMP180;55512;50.102;19.958;2023-04-24T12:52:41;97560.00;;;25.30
68510;BMP180;55512;50.102;19.958;2023-04-24T12:55:08;97557.20;;;25.20
68510;BMP180;55512;50.102;19.958;2023-04-24T12:57:36;97566.20;;;25.00
68510;BMP180;55512;50.102;19.958;2023-04-24T13:00:04;97570.20;;;24.68
68510;BMP180;55512;50.102;19.958;2023-04-24T13:02:31;97574.80;;;24.30
68510;BMP180;55512;50.102;19.958;2023-04-24T13:04:58;97575.20;;;24.06
68510;BMP180;55512;50.102;19.958;2023-04-24T13:07:24;97578.60;;;23.70
68510;BMP180;55512;50.102;19.958;2023-04-24T13:09:51;97583.80;;;23.38
68510;BMP180;55512;50.102;19.958;2023-04-24T13:12:17;97576.40;;;23.04
68510;BMP180;55512;50.102;19.958;2023-04-24T13:14:43;97576.00;;;22.80
68510;BMP180;55512;50.102;19.958;2023-04-24T13:17:09;97572.40;;;22.60
68510;BMP180;55512;50.102;19.958;2023-04-24T13:19:37;97576.40;;;22.30
68510;BMP180;55512;50.102;19.958;2023-04-24T13:22:04;97574.80;;;22.10
68510;BMP180;55512;50.102;19.958;2023-04-24T13:24:30;97577.60;;;21.90
68510;BMP180;55512;50.102;19.958;2023-04-24T13:26:57;97572.00;;;21.54
68510;BMP180;55512;50.102;19.958;2023-04-24T13:29:23;97576.20;;;21.32
68510;BMP180;55512;50.102;19.958;2023-04-24T13:31:53;97574.00;;;21.10
68510;BMP180;55512;50.102;19.958;2023-04-24T13:34:25;97577.20;;;21.00
68510;BMP180;55512;50.102;19.958;2023-04-24T13:36:53;97575.40;;;20.90
68510;BMP180;55512;50.102;19.958;2023-04-24T13:39:20;97575.40;;;20.80
68510;BMP180;55512;50.102;19.958;2023-04-24T13:41:45;97577.80;;;20.60
68510;BMP180;55512;50.102;19.958;2023-04-24T13:44:14;97574.60;;;20.50
68510;BMP180;55512;50.102;19.958;2023-04-24T13:46:41;97581.80;;;20.40
68510;BMP180;55512;50.102;19.958;2023-04-24T13:49:06;97588.40;;;20.26
68510;BMP180;55512;50.102;19.958;2023-04-24T13:51:32;97585.00;;;20.10
68510;BMP180;55512;50.102;19.958;2023-04-24T13:53:58;97588.80;;;20.10
68510;BMP180;55512;50.102;19.958;2023-04-24T13:56:25;97584.00;;;20.00
68510;BMP180;55512;50.102;19.958;2023-04-24T13:58:51;97583.60;;;19.90
68510;BMP180;55512;50.102;19.958;2023-04-24T14:01:16;97586.00;;;19.88
68510;BMP180;55512;50.102;19.958;2023-04-24T14:03:42;97590.40;;;19.80
68510;BMP180;55512;50.102;19.958;2023-04-24T14:06:11;97594.00;;;19.70